KEKY

Bessemer Airport

Bessemer, Alabama, USA
METAR KEKY 201856Z AUTO 33006KT 10SM OVC009 17/16 A3006 RMK AO2 RAE07 CIG 007V013 SLP193 P0000 T01720161
Observed Flight Rules
Oct-20 @ 18:56 UTC (24 minutes ago) Instrument Flight Rules
Wind Visibility Clouds
330° at 6 knots 10 miles
  • Overcast at 900' AGL
Temperatures Readings Precipitation
Current 17°C / 63°F
Dewpoint 16°C / 61°F
Humidity 94%
Altimeter 30.06" Hg
Pressure 1019.3 hPa
Elevation 213
Current Rain 0.005
METAR KEKY 201856Z AUTO 33006KT 10SM OVC009 17/16 A3006 RMK AO2 RAE07 CIG 007V013 SLP193 P0000 T01720161
Observed Flight Rules
Oct-20 @ 18:56 UTC
(24 minutes ago)
IFR
Wind Visibility
330° at 6 knots 10 miles
Clouds
  • Overcast at 900' AGL
Temperature Dewpoint
17°C / 63°F 16°C / 61°F
Humidity Altimeter Pressure
94% 30.06" Hg 1019.3 hPa
Current Rain
0.005